createdAt,value
2023-02-11T00:00:39.131Z,-3.85
2023-02-11T00:03:42.232Z,-3.90
2023-02-11T00:06:44.903Z,-3.97
2023-02-11T00:09:47.518Z,-3.99
2023-02-11T00:12:50.120Z,-4.03
2023-02-11T00:15:55.427Z,-4.08
2023-02-11T00:18:59.926Z,-4.13
2023-02-11T00:22:02.766Z,-4.17
2023-02-11T00:25:06.053Z,-4.11
2023-02-11T00:28:09.748Z,-4.10
2023-02-11T00:31:15.316Z,-4.02
2023-02-11T00:34:18.111Z,-4.07
2023-02-11T00:37:20.841Z,-4.03
2023-02-11T00:40:23.890Z,-4.11
2023-02-11T00:43:26.747Z,-4.09
2023-02-11T00:46:31.224Z,-4.11
2023-02-11T00:49:34.312Z,-4.11
2023-02-11T00:52:37.048Z,-4.06
2023-02-11T00:55:39.704Z,-3.99
2023-02-11T00:58:42.480Z,-3.97
2023-02-11T01:01:47.788Z,-3.93
2023-02-11T01:04:50.738Z,-3.90
2023-02-11T01:07:53.382Z,-3.84
2023-02-11T01:10:57.870Z,-3.89
2023-02-11T01:14:00.567Z,-3.89
2023-02-11T01:17:06.519Z,-3.85
2023-02-11T01:20:14.645Z,-3.79
2023-02-11T01:23:17.321Z,-3.96
2023-02-11T01:26:19.998Z,-4.06
2023-02-11T01:29:23.053Z,-3.97
2023-02-11T01:32:27.068Z,-3.99
2023-02-11T01:35:30.002Z,-4.04
2023-02-11T01:38:33.541Z,-4.10
2023-02-11T01:41:55.060Z,-4.01
2023-02-11T01:44:58.012Z,-4.03
2023-02-11T01:48:02.647Z,-4.19
2023-02-11T01:51:09.160Z,-4.37
2023-02-11T01:54:33.800Z,-4.26
2023-02-11T01:57:39.966Z,-4.22
2023-02-11T02:00:43.657Z,-4.24
2023-02-11T02:03:52.357Z,-4.11
2023-02-11T02:07:03.516Z,-4.09
2023-02-11T02:10:11.462Z,-3.94
2023-02-11T02:13:14.826Z,-3.91
2023-02-11T02:16:21.365Z,-3.96
2023-02-11T02:20:01.629Z,-4.06
2023-02-11T02:23:27.032Z,-4.02
2023-02-11T02:26:46.874Z,-4.14
2023-02-11T02:30:36.190Z,-4.13
2023-02-11T02:33:50.052Z,-3.96
2023-02-11T02:37:01.071Z,-4.00
2023-02-11T02:40:09.254Z,-3.87
2023-02-11T02:43:13.850Z,-3.98
2023-02-11T02:46:19.662Z,-4.04
2023-02-11T02:49:23.812Z,-4.15
2023-02-11T02:52:35.401Z,-4.02
2023-02-11T02:55:48.519Z,-4.03
2023-02-11T02:59:29.358Z,-4.04
2023-02-11T03:02:37.203Z,-4.14
2023-02-11T03:05:51.491Z,-4.17
2023-02-11T03:08:59.682Z,-4.20
2023-02-11T03:12:04.495Z,-4.20
2023-02-11T03:15:08.353Z,-4.17
2023-02-11T03:18:31.335Z,-4.29
2023-02-11T03:21:37.884Z,-4.40
2023-02-11T03:24:41.843Z,-4.32
2023-02-11T03:27:55.797Z,-4.36
2023-02-11T03:31:09.873Z,-4.37
2023-02-11T03:34:16.195Z,-4.44
2023-02-11T03:37:27.954Z,-4.53
2023-02-11T03:40:35.325Z,-4.63
2023-02-11T03:43:42.311Z,-4.70
2023-02-11T03:46:49.096Z,-4.76
2023-02-11T03:49:54.680Z,-4.82
2023-02-11T03:53:01.413Z,-4.73
2023-02-11T03:56:09.068Z,-4.71
2023-02-11T03:59:11.757Z,-4.86
2023-02-11T04:02:14.445Z,-4.74
2023-02-11T04:05:17.079Z,-4.64
2023-02-11T04:08:21.232Z,-4.66
2023-02-11T04:11:23.947Z,-4.72
2023-02-11T04:14:26.630Z,-4.73
2023-02-11T04:17:29.572Z,-4.62
2023-02-11T04:20:32.234Z,-4.73
2023-02-11T04:23:36.346Z,-4.80
2023-02-11T04:26:38.960Z,-4.83
2023-02-11T04:29:41.731Z,-4.93
2023-02-11T04:32:44.426Z,-5.00
2023-02-11T04:35:47.223Z,-4.96
2023-02-11T04:38:51.432Z,-4.95
2023-02-11T04:41:54.037Z,-4.86
2023-02-11T04:44:56.680Z,-4.87
2023-02-11T04:47:59.411Z,-4.91
2023-02-11T04:51:02.705Z,-4.94
2023-02-11T04:54:06.916Z,-4.94
2023-02-11T04:57:09.674Z,-4.83
2023-02-11T05:00:13.465Z,-4.77
2023-02-11T05:03:17.483Z,-4.85
2023-02-11T05:06:20.144Z,-4.85
2023-02-11T05:09:24.556Z,-4.87
2023-02-11T05:12:27.231Z,-4.98
2023-02-11T05:15:29.948Z,-5.11
2023-02-11T05:18:32.524Z,-5.05
2023-02-11T05:21:35.425Z,-4.86
2023-02-11T05:24:39.751Z,-4.79
2023-02-11T05:27:42.477Z,-4.86
2023-02-11T05:30:45.146Z,-4.78
2023-02-11T05:33:47.862Z,-4.75
2023-02-11T05:36:50.513Z,-4.73
2023-02-11T05:39:54.825Z,-4.68
2023-02-11T05:42:57.551Z,-4.71
2023-02-11T05:46:00.282Z,-4.72
2023-02-11T05:49:03.344Z,-4.78
2023-02-11T05:52:06.071Z,-4.58
2023-02-11T05:55:10.223Z,-4.55
2023-02-11T05:58:13.694Z,-4.56
2023-02-11T06:01:16.720Z,-4.62
2023-02-11T06:04:19.535Z,-4.56
2023-02-11T06:07:22.355Z,-4.50
2023-02-11T06:10:26.788Z,-4.41
2023-02-11T06:13:29.425Z,-4.39
2023-02-11T06:16:32.313Z,-4.46
2023-02-11T06:19:35.094Z,-4.35
2023-02-11T06:22:38.155Z,-4.20
2023-02-11T06:25:43.602Z,-4.11
2023-02-11T06:28:46.803Z,-3.98
2023-02-11T06:31:49.432Z,-3.86
2023-02-11T06:34:52.065Z,-3.77
2023-02-11T06:37:54.834Z,-3.69
2023-02-11T06:40:58.877Z,-3.46
2023-02-11T06:44:01.555Z,-3.31
2023-02-11T06:47:04.341Z,-3.15
2023-02-11T06:50:08.899Z,-3.05
2023-02-11T06:53:11.562Z,-3.14
2023-02-11T06:56:17.393Z,-3.04
2023-02-11T06:59:20.818Z,-2.84
2023-02-11T07:02:23.470Z,-2.55
2023-02-11T07:05:26.369Z,-2.38
2023-02-11T07:08:29.378Z,-2.25
2023-02-11T07:11:33.940Z,-2.21
2023-02-11T07:14:36.620Z,-2.01
2023-02-11T07:17:39.258Z,-1.86
2023-02-11T07:20:42.112Z,-1.55
2023-02-11T07:23:45.973Z,-1.27
2023-02-11T07:26:50.457Z,-1.01
2023-02-11T07:29:53.169Z,-0.80
2023-02-11T07:32:56.555Z,-0.75
2023-02-11T07:36:00.448Z,-0.35
2023-02-11T07:39:04.315Z,0.29
2023-02-11T07:42:08.589Z,0.84
2023-02-11T07:45:12.681Z,1.25
2023-02-11T07:48:15.340Z,1.59
2023-02-11T07:51:20.466Z,1.83
2023-02-11T07:54:23.354Z,2.05
2023-02-11T07:57:27.498Z,2.42
2023-02-11T08:00:30.284Z,2.88
2023-02-11T08:03:33.782Z,3.17
2023-02-11T08:06:41.431Z,3.10
2023-02-11T08:09:44.947Z,3.19
2023-02-11T08:12:49.467Z,3.39
2023-02-11T08:15:52.351Z,3.85
2023-02-11T08:18:57.698Z,3.90
2023-02-11T08:22:01.439Z,4.27
2023-02-11T08:25:04.496Z,4.56
2023-02-11T08:28:09.287Z,4.49
2023-02-11T08:31:14.342Z,4.56
2023-02-11T08:34:20.276Z,4.85
2023-02-11T08:37:23.102Z,5.30
2023-02-11T08:40:25.970Z,5.24
2023-02-11T08:43:30.311Z,5.32
2023-02-11T08:46:33.119Z,6.16
2023-02-11T08:49:36.509Z,6.23
2023-02-11T08:52:39.366Z,6.57
2023-02-11T08:55:48.847Z,6.85
2023-02-11T08:58:53.659Z,7.26
2023-02-11T09:01:57.226Z,7.46
2023-02-11T09:04:59.949Z,7.92
2023-02-11T09:08:02.641Z,6.89
2023-02-11T09:11:05.931Z,6.86
2023-02-11T09:14:16.712Z,6.33
2023-02-11T09:17:19.530Z,6.14
2023-02-11T09:20:22.296Z,6.46
2023-02-11T09:23:25.273Z,6.57
2023-02-11T09:26:30.578Z,6.53
2023-02-11T09:29:35.383Z,6.57
2023-02-11T09:32:38.074Z,6.22
2023-02-11T09:35:40.768Z,6.41
2023-02-11T09:38:44.159Z,6.86
2023-02-11T09:42:05.738Z,7.22
2023-02-11T09:45:17.484Z,6.99
2023-02-11T09:48:22.606Z,7.24
2023-02-11T09:51:36.468Z,6.96
2023-02-11T09:54:52.724Z,7.10
2023-02-11T09:57:56.237Z,7.31
2023-02-11T10:01:08.552Z,6.80
2023-02-11T10:04:17.693Z,6.72
2023-02-11T10:07:27.492Z,6.75
2023-02-11T10:10:43.935Z,6.73
2023-02-11T10:13:55.414Z,6.53
2023-02-11T10:17:12.787Z,6.73
2023-02-11T10:20:26.291Z,7.22
2023-02-11T10:23:34.974Z,7.76
2023-02-11T10:26:39.893Z,7.69
2023-02-11T10:29:48.215Z,8.13
2023-02-11T10:32:57.183Z,8.73
2023-02-11T10:36:00.191Z,8.86
2023-02-11T10:39:11.663Z,9.16
2023-02-11T10:42:15.883Z,8.84
2023-02-11T10:45:25.246Z,8.72
2023-02-11T10:48:44.420Z,8.62
2023-02-11T10:51:47.347Z,8.59
2023-02-11T10:55:02.236Z,8.32
2023-02-11T10:58:05.053Z,7.84
2023-02-11T11:01:23.416Z,7.73
2023-02-11T11:04:41.075Z,8.63
2023-02-11T11:07:54.299Z,9.55
2023-02-11T11:11:04.075Z,9.96
2023-02-11T11:14:19.570Z,9.07
2023-02-11T11:17:22.547Z,8.49
2023-02-11T11:20:29.407Z,8.07
2023-02-11T11:23:34.712Z,7.67
2023-02-11T11:26:42.505Z,7.98
2023-02-11T11:29:49.285Z,8.22
2023-02-11T11:32:52.378Z,8.93
2023-02-11T11:36:00.952Z,9.67
2023-02-11T11:39:18.730Z,10.57
2023-02-11T11:42:26.181Z,11.04
2023-02-11T11:45:28.865Z,11.25
2023-02-11T11:48:35.183Z,11.83
2023-02-11T11:51:42.134Z,11.69
2023-02-11T11:54:53.604Z,10.94
2023-02-11T11:57:56.321Z,11.33
2023-02-11T12:01:15.115Z,11.49
2023-02-11T12:04:36.833Z,11.70
2023-02-11T12:07:52.698Z,11.46
2023-02-11T12:11:09.130Z,10.27
2023-02-11T12:14:20.546Z,9.34
2023-02-11T12:17:36.694Z,8.69
2023-02-11T12:20:53.865Z,8.60
2023-02-11T12:24:10.329Z,8.37
2023-02-11T12:27:18.414Z,8.09
2023-02-11T12:30:49.160Z,8.36
2023-02-11T12:34:14.245Z,8.19
2023-02-11T12:37:33.224Z,8.08
2023-02-11T12:40:46.831Z,8.16
2023-02-11T12:43:50.555Z,7.90
2023-02-11T12:47:03.071Z,8.26
2023-02-11T12:50:17.406Z,8.80
2023-02-11T12:53:39.517Z,8.78
2023-02-11T12:56:48.668Z,8.25
2023-02-11T12:59:58.999Z,7.91
2023-02-11T13:03:11.074Z,7.60
2023-02-11T13:06:17.835Z,7.35
2023-02-11T13:09:25.343Z,7.04
2023-02-11T13:12:51.082Z,6.96
2023-02-11T13:15:58.673Z,7.01
2023-02-11T13:19:14.028Z,7.04
2023-02-11T13:22:19.781Z,7.40
2023-02-11T13:25:31.529Z,7.81
2023-02-11T13:28:45.216Z,8.24
2023-02-11T13:31:54.697Z,8.32
2023-02-11T13:34:58.431Z,8.85
2023-02-11T13:38:03.393Z,9.09
2023-02-11T13:41:18.367Z,8.81
2023-02-11T13:44:26.624Z,8.75
2023-02-11T13:47:33.084Z,9.39
2023-02-11T13:50:39.764Z,9.96
2023-02-11T13:53:47.388Z,10.08
2023-02-11T13:57:26.324Z,9.85
2023-02-11T14:00:50.378Z,9.75
2023-02-11T14:04:39.420Z,9.80
2023-02-11T14:08:32.331Z,10.31
2023-02-11T14:11:49.066Z,10.83
2023-02-11T14:15:13.924Z,11.00
2023-02-11T14:18:57.318Z,11.33
2023-02-11T14:22:03.179Z,10.77
2023-02-11T14:25:18.340Z,10.17
2023-02-11T14:28:44.802Z,9.99
2023-02-11T14:31:57.652Z,9.73
2023-02-11T14:35:10.162Z,9.80
2023-02-11T14:38:23.119Z,9.88
2023-02-11T14:41:29.474Z,10.06
2023-02-11T14:44:34.230Z,10.06
2023-02-11T14:47:44.731Z,9.03
2023-02-11T14:50:52.994Z,8.95
2023-02-11T14:54:01.036Z,8.87
2023-02-11T14:57:09.309Z,8.91
2023-02-11T15:00:18.180Z,8.84
2023-02-11T15:03:32.863Z,8.33
2023-02-11T15:06:40.018Z,8.11
2023-02-11T15:09:46.468Z,7.54
2023-02-11T15:12:50.000Z,7.12
2023-02-11T15:15:57.856Z,6.74
2023-02-11T15:19:05.122Z,6.54
2023-02-11T15:22:20.147Z,6.23
2023-02-11T15:25:24.053Z,6.02
2023-02-11T15:28:29.127Z,5.79
2023-02-11T15:31:35.089Z,5.61
2023-02-11T15:34:39.238Z,5.51
2023-02-11T15:37:44.338Z,5.28
2023-02-11T15:40:56.703Z,5.07
2023-02-11T15:43:59.581Z,4.90
2023-02-11T15:47:02.439Z,4.72
2023-02-11T15:50:06.566Z,4.64
2023-02-11T15:53:25.424Z,4.36
2023-02-11T15:56:32.908Z,4.28
2023-02-11T15:59:38.389Z,4.14
2023-02-11T16:02:45.226Z,4.02
2023-02-11T16:05:49.494Z,3.88
2023-02-11T16:09:02.897Z,3.80
2023-02-11T16:12:23.456Z,3.63
2023-02-11T16:15:41.444Z,3.42
2023-02-11T16:19:02.110Z,3.26
2023-02-11T16:22:10.528Z,3.19
2023-02-11T16:25:20.206Z,3.14
2023-02-11T16:28:23.384Z,3.16
2023-02-11T16:31:33.206Z,3.14
2023-02-11T16:34:36.717Z,3.14
2023-02-11T16:37:39.571Z,3.13
2023-02-11T16:40:46.079Z,3.05
2023-02-11T16:43:49.062Z,3.07
2023-02-11T16:46:53.096Z,3.07
2023-02-11T16:49:57.504Z,3.02
2023-02-11T16:53:02.170Z,3.00
2023-02-11T16:56:06.867Z,2.91
2023-02-11T16:59:10.115Z,2.81
2023-02-11T17:02:15.720Z,2.84
2023-02-11T17:05:22.904Z,2.83
2023-02-11T17:08:25.837Z,2.90
2023-02-11T17:11:30.163Z,2.92
2023-02-11T17:14:33.236Z,2.91
2023-02-11T17:17:36.086Z,2.82
2023-02-11T17:20:39.019Z,2.75
2023-02-11T17:23:43.292Z,2.84
2023-02-11T17:26:48.046Z,2.82
2023-02-11T17:29:50.956Z,3.00
2023-02-11T17:32:53.867Z,3.11
2023-02-11T17:35:57.742Z,3.08
2023-02-11T17:39:01.192Z,3.20
2023-02-11T17:42:06.444Z,3.28
2023-02-11T17:45:10.133Z,3.29
2023-02-11T17:48:13.057Z,3.30
2023-02-11T17:51:23.898Z,3.33
2023-02-11T17:54:26.907Z,3.36
2023-02-11T17:57:31.287Z,3.29
2023-02-11T18:00:34.284Z,3.34
2023-02-11T18:03:37.558Z,3.36
2023-02-11T18:06:41.449Z,3.38
2023-02-11T18:09:45.149Z,3.36
2023-02-11T18:12:49.411Z,3.30
2023-02-11T18:15:52.938Z,3.40
2023-02-11T18:18:56.937Z,3.46
2023-02-11T18:22:01.187Z,3.37
2023-02-11T18:25:05.061Z,3.43
2023-02-11T18:28:09.417Z,3.42
2023-02-11T18:31:12.574Z,3.42
2023-02-11T18:34:17.008Z,3.39
2023-02-11T18:37:19.996Z,3.41
2023-02-11T18:40:22.912Z,3.42
2023-02-11T18:43:31.583Z,3.49
2023-02-11T18:46:34.404Z,3.46
2023-02-11T18:49:37.477Z,3.46
2023-02-11T18:52:40.467Z,3.48
2023-02-11T18:55:45.489Z,3.50
2023-02-11T18:58:51.390Z,3.49
2023-02-11T19:01:55.602Z,3.45
2023-02-11T19:04:58.616Z,3.44
2023-02-11T19:08:01.530Z,3.42
2023-02-11T19:11:05.060Z,3.39
2023-02-11T19:14:10.418Z,3.39
2023-02-11T19:17:13.496Z,3.42
2023-02-11T19:20:16.854Z,3.34
2023-02-11T19:23:19.811Z,3.32
2023-02-11T19:26:24.205Z,3.33
2023-02-11T19:29:29.372Z,3.34
2023-02-11T19:32:32.517Z,3.29
2023-02-11T19:35:35.696Z,3.36
2023-02-11T19:38:39.046Z,3.35
2023-02-11T19:41:43.278Z,3.37
2023-02-11T19:44:47.720Z,3.47
2023-02-11T19:47:55.478Z,3.35
2023-02-11T19:50:58.839Z,3.49
2023-02-11T19:54:01.994Z,3.43
2023-02-11T19:57:04.677Z,3.48
2023-02-11T20:00:11.184Z,3.45
2023-02-11T20:03:17.109Z,3.56
2023-02-11T20:06:23.508Z,3.40
2023-02-11T20:09:29.006Z,3.41
2023-02-11T20:12:31.926Z,3.34
2023-02-11T20:15:36.750Z,3.38
2023-02-11T20:18:40.382Z,3.48
2023-02-11T20:21:46.606Z,3.50
2023-02-11T20:24:49.881Z,3.56
2023-02-11T20:27:52.947Z,3.45
2023-02-11T20:30:58.032Z,3.49
2023-02-11T20:34:01.833Z,3.50
2023-02-11T20:37:06.029Z,3.51
2023-02-11T20:40:09.653Z,3.52
2023-02-11T20:43:21.028Z,3.56
2023-02-11T20:46:27.792Z,3.52
2023-02-11T20:49:30.805Z,3.46
2023-02-11T20:52:34.321Z,3.56
2023-02-11T20:55:38.525Z,3.43
2023-02-11T20:58:41.856Z,3.49
2023-02-11T21:01:48.331Z,3.57
2023-02-11T21:04:51.235Z,3.53
2023-02-11T21:07:54.275Z,3.54
2023-02-11T21:10:57.330Z,3.52
2023-02-11T21:14:02.403Z,3.55
2023-02-11T21:17:07.536Z,3.61
2023-02-11T21:20:10.943Z,3.63
2023-02-11T21:23:13.875Z,3.65
2023-02-11T21:26:17.215Z,3.63
2023-02-11T21:29:20.150Z,3.68
2023-02-11T21:32:24.467Z,3.67
2023-02-11T21:35:27.419Z,3.69
2023-02-11T21:38:31.113Z,3.67
2023-02-11T21:41:34.868Z,3.80
2023-02-11T21:44:38.093Z,3.87
2023-02-11T21:47:42.102Z,3.94
2023-02-11T21:50:46.687Z,3.77
2023-02-11T21:53:53.838Z,3.73
2023-02-11T21:56:57.364Z,3.74
2023-02-11T22:00:00.282Z,3.68
2023-02-11T22:03:04.540Z,3.59
2023-02-11T22:06:09.557Z,3.46
2023-02-11T22:09:12.472Z,3.50
2023-02-11T22:12:15.197Z,3.49
2023-02-11T22:15:18.133Z,3.49
2023-02-11T22:18:22.529Z,3.56
2023-02-11T22:21:25.397Z,3.78
2023-02-11T22:24:29.649Z,3.71
2023-02-11T22:27:32.262Z,3.81
2023-02-11T22:30:35.254Z,3.83
2023-02-11T22:33:39.662Z,3.85
2023-02-11T22:36:42.379Z,3.90
2023-02-11T22:39:45.159Z,3.76
2023-02-11T22:42:47.975Z,3.74
2023-02-11T22:45:52.190Z,3.82
2023-02-11T22:48:56.761Z,3.79
2023-02-11T22:52:00.044Z,3.81
2023-02-11T22:55:02.701Z,3.78
2023-02-11T22:58:05.509Z,3.77
2023-02-11T23:01:08.273Z,3.62
2023-02-11T23:04:14.565Z,3.54
2023-02-11T23:07:17.404Z,3.39
2023-02-11T23:10:20.309Z,3.42
2023-02-11T23:13:23.121Z,3.38
2023-02-11T23:16:28.121Z,3.33
2023-02-11T23:19:32.359Z,3.23
2023-02-11T23:22:35.382Z,3.35
2023-02-11T23:25:42.680Z,3.25
2023-02-11T23:28:46.120Z,3.12
2023-02-11T23:31:49.845Z,3.11
2023-02-11T23:34:54.925Z,3.07
2023-02-11T23:37:57.555Z,3.15
2023-02-11T23:41:00.209Z,3.22
2023-02-11T23:44:04.183Z,3.30
2023-02-11T23:47:07.073Z,3.32
2023-02-11T23:50:12.142Z,3.22
2023-02-11T23:53:15.230Z,3.25
2023-02-11T23:56:20.489Z,3.38
2023-02-11T23:59:23.247Z,3.71
